Airfield :
LOGIN :

Register | Disclaimer

   EN    FR    IT 

 










Legend :    VFR   Marginal VFR   IFR   Intensive IFR   Very Intensive IFR
Visi :
Ceiling :
>= 8 km
>= 3000ft
5 to 8 km
1000 to 3000 ft
1500m to 5 km
500 to 1000 ft
800 to 1500m
200 to 500 ft
< 800m
< 200 ft
Symbols :   Thunderstorms  Fog  Heavy snow  Heavy precipitations  Wind > 20 kt
SIGMETs :     Misc.  Thunderstorms  Icing  Turbulence  Mountain Waves  Volcanic Ashes







- Airport Elevation : 1649 ft
- IATA code : HHN


EDFH - Frankfurt-Hahn Rhineland-Palatinate

CURRENT METAR :
  • 241320Z 35008KT 9999 SCT020 09/04 Q1024

EXPIRED METARs :
  • 241250Z 34010KT 310V010 9999 SCT020 10/04 Q1024
  • 241220Z 35008KT 300V020 9999 SCT020 09/04 Q1025
  • 241150Z 34009KT 310V010 9999 SCT018 09/05 Q1025
  • 241120Z 01008KT 320V040 9999 BKN014 09/05 Q1025
  • 241050Z 36004KT 330V070 7000 BKN010 08/05 Q1025

TAF TAF EDFH
Valid from the 24 at 12:00 until the 25 at 12:00 UTC


241100Z 2412/2512 35006KT 8000 SCT020
PROB30
TEMPO 2412/2414 BKN012
BECMG 2422/2424 27008KT
PROB30
TEMPO 2505/2510 BKN008
BECMG 2506/2508 30015G30KT
PROB30
TEMPO 2510/2512 31020G35KT SHGS BKN025CB
No reported NOTAMs for that airfield.



MET'MAP, your aeronautical weather chart ! - Copyright ORBIFLY December 2007 - Disclaimer

ORBIFLY MET'MAP TEAM :

Programming & Development : Alexandra Zaïnal
Concept & Development : Baudouin d'Aumeries
Co-Development & Prog : Marc-Olivier Méhu
Technical & hardware support : Manuel Goepfert

Contact : metmap@orbifly.com




SOURCES & CREDITS :

   NOAA